sensor_id;sensor_type;location;lat;lon;timestamp;P1;durP1;ratioP1;P2;durP2;ratioP2
21192;SDS011;10754;51.106;7.164;2022-09-29T00:01:08;2.72;;;2.47;;
21192;SDS011;10754;51.106;7.164;2022-09-29T00:03:33;3.03;;;2.72;;
21192;SDS011;10754;51.106;7.164;2022-09-29T00:06:00;3.28;;;2.65;;
21192;SDS011;10754;51.106;7.164;2022-09-29T00:08:26;2.85;;;2.65;;
21192;SDS011;10754;51.106;7.164;2022-09-29T00:10:52;3.13;;;2.60;;
21192;SDS011;10754;51.106;7.164;2022-09-29T00:13:18;3.95;;;2.47;;
21192;SDS011;10754;51.106;7.164;2022-09-29T00:15:44;2.65;;;2.45;;
21192;SDS011;10754;51.106;7.164;2022-09-29T00:18:09;2.65;;;2.45;;
21192;SDS011;10754;51.106;7.164;2022-09-29T00:20:36;2.80;;;2.60;;
21192;SDS011;10754;51.106;7.164;2022-09-29T00:23:02;3.90;;;2.20;;
21192;SDS011;10754;51.106;7.164;2022-09-29T00:25:28;3.13;;;2.42;;
21192;SDS011;10754;51.106;7.164;2022-09-29T00:27:54;2.75;;;2.50;;
21192;SDS011;10754;51.106;7.164;2022-09-29T00:30:19;3.13;;;2.10;;
21192;SDS011;10754;51.106;7.164;2022-09-29T00:32:45;2.38;;;2.17;;
21192;SDS011;10754;51.106;7.164;2022-09-29T00:35:10;3.80;;;2.70;;
21192;SDS011;10754;51.106;7.164;2022-09-29T00:37:37;4.18;;;2.65;;
21192;SDS011;10754;51.106;7.164;2022-09-29T00:40:04;4.55;;;2.60;;
21192;SDS011;10754;51.106;7.164;2022-09-29T00:42:30;2.90;;;2.53;;
21192;SDS011;10754;51.106;7.164;2022-09-29T00:47:39;2.50;;;2.30;;
21192;SDS011;10754;51.106;7.164;2022-09-29T00:50:16;3.35;;;2.20;;
21192;SDS011;10754;51.106;7.164;2022-09-29T00:52:57;2.50;;;2.30;;
21192;SDS011;10754;51.106;7.164;2022-09-29T00:55:30;3.10;;;2.15;;
21192;SDS011;10754;51.106;7.164;2022-09-29T00:58:07;2.38;;;2.03;;
21192;SDS011;10754;51.106;7.164;2022-09-29T01:00:47;2.75;;;2.38;;
21192;SDS011;10754;51.106;7.164;2022-09-29T01:03:14;2.38;;;2.17;;
21192;SDS011;10754;51.106;7.164;2022-09-29T01:06:05;4.63;;;2.50;;
21192;SDS011;10754;51.106;7.164;2022-09-29T01:11:32;2.72;;;2.38;;
21192;SDS011;10754;51.106;7.164;2022-09-29T01:13:59;2.40;;;2.20;;
21192;SDS011;10754;51.106;7.164;2022-09-29T01:16:29;3.60;;;2.40;;
21192;SDS011;10754;51.106;7.164;2022-09-29T01:18:56;2.90;;;2.60;;
21192;SDS011;10754;51.106;7.164;2022-09-29T01:21:27;5.20;;;2.78;;
21192;SDS011;10754;51.106;7.164;2022-09-29T01:24:01;3.72;;;2.17;;
21192;SDS011;10754;51.106;7.164;2022-09-29T01:32:14;3.17;;;2.03;;
21192;SDS011;10754;51.106;7.164;2022-09-29T01:37:30;2.58;;;1.90;;
21192;SDS011;10754;51.106;7.164;2022-09-29T01:40:08;3.30;;;2.38;;
21192;SDS011;10754;51.106;7.164;2022-09-29T01:42:46;2.50;;;1.80;;
21192;SDS011;10754;51.106;7.164;2022-09-29T01:47:51;1.83;;;1.73;;
21192;SDS011;10754;51.106;7.164;2022-09-29T01:50:23;3.97;;;2.30;;
21192;SDS011;10754;51.106;7.164;2022-09-29T01:52:55;2.63;;;2.13;;
21192;SDS011;10754;51.106;7.164;2022-09-29T01:55:26;4.17;;;1.90;;
21192;SDS011;10754;51.106;7.164;2022-09-29T01:57:59;2.83;;;2.10;;
21192;SDS011;10754;51.106;7.164;2022-09-29T02:00:38;2.90;;;2.10;;
21192;SDS011;10754;51.106;7.164;2022-09-29T02:03:11;2.10;;;1.90;;
21192;SDS011;10754;51.106;7.164;2022-09-29T02:05:54;4.50;;;2.27;;
21192;SDS011;10754;51.106;7.164;2022-09-29T02:13:22;2.33;;;2.13;;
21192;SDS011;10754;51.106;7.164;2022-09-29T02:15:50;3.85;;;2.30;;
21192;SDS011;10754;51.106;7.164;2022-09-29T02:18:22;2.27;;;2.10;;
21192;SDS011;10754;51.106;7.164;2022-09-29T02:20:57;3.47;;;2.00;;
21192;SDS011;10754;51.106;7.164;2022-09-29T02:23:23;3.53;;;2.50;;
21192;SDS011;10754;51.106;7.164;2022-09-29T02:25:48;2.87;;;2.57;;
21192;SDS011;10754;51.106;7.164;2022-09-29T02:28:14;2.53;;;2.30;;
21192;SDS011;10754;51.106;7.164;2022-09-29T02:30:41;6.47;;;2.20;;
21192;SDS011;10754;51.106;7.164;2022-09-29T02:33:16;2.38;;;2.13;;
21192;SDS011;10754;51.106;7.164;2022-09-29T02:35:57;3.05;;;2.85;;
21192;SDS011;10754;51.106;7.164;2022-09-29T02:38:52;2.50;;;2.30;;
21192;SDS011;10754;51.106;7.164;2022-09-29T02:41:33;2.42;;;2.22;;
21192;SDS011;10754;51.106;7.164;2022-09-29T02:47:13;2.80;;;2.60;;
21192;SDS011;10754;51.106;7.164;2022-09-29T02:50:16;4.40;;;2.90;;
21192;SDS011;10754;51.106;7.164;2022-09-29T02:53:09;4.47;;;2.73;;
21192;SDS011;10754;51.106;7.164;2022-09-29T02:58:37;2.97;;;2.70;;
21192;SDS011;10754;51.106;7.164;2022-09-29T03:01:07;3.00;;;2.80;;
21192;SDS011;10754;51.106;7.164;2022-09-29T03:03:33;3.80;;;3.40;;
21192;SDS011;10754;51.106;7.164;2022-09-29T03:05:59;3.37;;;3.07;;
21192;SDS011;10754;51.106;7.164;2022-09-29T03:08:24;4.13;;;3.00;;
21192;SDS011;10754;51.106;7.164;2022-09-29T03:10:50;3.60;;;3.30;;
21192;SDS011;10754;51.106;7.164;2022-09-29T03:13:16;3.53;;;3.27;;
21192;SDS011;10754;51.106;7.164;2022-09-29T03:15:41;3.03;;;2.78;;
21192;SDS011;10754;51.106;7.164;2022-09-29T03:18:07;4.88;;;2.80;;
21192;SDS011;10754;51.106;7.164;2022-09-29T03:20:33;3.23;;;3.03;;
21192;SDS011;10754;51.106;7.164;2022-09-29T03:22:58;3.27;;;2.97;;
21192;SDS011;10754;51.106;7.164;2022-09-29T03:25:24;3.27;;;2.97;;
21192;SDS011;10754;51.106;7.164;2022-09-29T03:27:50;4.77;;;3.30;;
21192;SDS011;10754;51.106;7.164;2022-09-29T03:30:16;3.77;;;3.47;;
21192;SDS011;10754;51.106;7.164;2022-09-29T03:32:42;4.70;;;3.20;;
21192;SDS011;10754;51.106;7.164;2022-09-29T03:35:08;3.40;;;2.70;;
21192;SDS011;10754;51.106;7.164;2022-09-29T03:37:34;3.90;;;2.60;;
21192;SDS011;10754;51.106;7.164;2022-09-29T03:40:00;3.20;;;3.00;;
21192;SDS011;10754;51.106;7.164;2022-09-29T03:42:26;4.10;;;3.10;;
21192;SDS011;10754;51.106;7.164;2022-09-29T03:44:52;3.40;;;3.20;;
21192;SDS011;10754;51.106;7.164;2022-09-29T03:47:18;3.40;;;3.20;;
21192;SDS011;10754;51.106;7.164;2022-09-29T03:49:44;3.60;;;3.30;;
21192;SDS011;10754;51.106;7.164;2022-09-29T03:52:09;5.20;;;3.40;;
21192;SDS011;10754;51.106;7.164;2022-09-29T03:54:35;3.30;;;3.00;;
21192;SDS011;10754;51.106;7.164;2022-09-29T03:57:01;3.27;;;2.97;;
21192;SDS011;10754;51.106;7.164;2022-09-29T03:59:26;3.40;;;3.07;;
21192;SDS011;10754;51.106;7.164;2022-09-29T04:01:52;3.70;;;3.40;;
21192;SDS011;10754;51.106;7.164;2022-09-29T04:04:17;3.50;;;2.90;;
21192;SDS011;10754;51.106;7.164;2022-09-29T04:06:42;4.70;;;2.90;;
21192;SDS011;10754;51.106;7.164;2022-09-29T04:09:08;4.17;;;3.80;;
21192;SDS011;10754;51.106;7.164;2022-09-29T04:11:34;3.23;;;2.93;;
21192;SDS011;10754;51.106;7.164;2022-09-29T04:13:59;3.77;;;3.20;;
21192;SDS011;10754;51.106;7.164;2022-09-29T04:16:25;3.43;;;3.17;;
21192;SDS011;10754;51.106;7.164;2022-09-29T04:18:50;3.30;;;3.10;;
21192;SDS011;10754;51.106;7.164;2022-09-29T04:21:16;3.60;;;3.30;;
21192;SDS011;10754;51.106;7.164;2022-09-29T04:23:41;3.47;;;3.17;;
21192;SDS011;10754;51.106;7.164;2022-09-29T04:26:07;3.73;;;3.40;;
21192;SDS011;10754;51.106;7.164;2022-09-29T04:28:33;3.07;;;2.87;;
21192;SDS011;10754;51.106;7.164;2022-09-29T04:31:00;3.50;;;3.20;;
21192;SDS011;10754;51.106;7.164;2022-09-29T04:33:26;3.80;;;3.10;;
21192;SDS011;10754;51.106;7.164;2022-09-29T04:35:53;4.20;;;3.00;;
21192;SDS011;10754;51.106;7.164;2022-09-29T04:38:20;3.13;;;2.87;;
21192;SDS011;10754;51.106;7.164;2022-09-29T04:40:46;3.60;;;3.30;;
21192;SDS011;10754;51.106;7.164;2022-09-29T04:43:12;3.13;;;2.93;;
21192;SDS011;10754;51.106;7.164;2022-09-29T04:45:37;3.40;;;3.20;;
21192;SDS011;10754;51.106;7.164;2022-09-29T04:48:03;3.30;;;3.10;;
21192;SDS011;10754;51.106;7.164;2022-09-29T04:50:28;5.87;;;3.00;;
21192;SDS011;10754;51.106;7.164;2022-09-29T04:52:55;3.10;;;2.90;;
21192;SDS011;10754;51.106;7.164;2022-09-29T04:55:20;3.57;;;3.10;;
21192;SDS011;10754;51.106;7.164;2022-09-29T04:57:46;3.60;;;3.30;;
21192;SDS011;10754;51.106;7.164;2022-09-29T05:00:12;3.33;;;3.03;;
21192;SDS011;10754;51.106;7.164;2022-09-29T05:02:39;2.73;;;2.53;;
21192;SDS011;10754;51.106;7.164;2022-09-29T05:05:04;3.03;;;2.83;;
21192;SDS011;10754;51.106;7.164;2022-09-29T05:07:30;3.40;;;3.10;;
21192;SDS011;10754;51.106;7.164;2022-09-29T05:09:58;4.20;;;3.57;;
21192;SDS011;10754;51.106;7.164;2022-09-29T05:12:24;4.43;;;3.10;;
21192;SDS011;10754;51.106;7.164;2022-09-29T05:14:49;3.60;;;3.30;;
21192;SDS011;10754;51.106;7.164;2022-09-29T05:17:15;4.00;;;2.90;;
21192;SDS011;10754;51.106;7.164;2022-09-29T05:19:41;2.90;;;2.70;;
21192;SDS011;10754;51.106;7.164;2022-09-29T05:22:06;3.50;;;3.20;;
21192;SDS011;10754;51.106;7.164;2022-09-29T05:24:31;3.93;;;3.17;;
21192;SDS011;10754;51.106;7.164;2022-09-29T05:26:57;3.70;;;3.40;;
21192;SDS011;10754;51.106;7.164;2022-09-29T05:29:22;4.23;;;3.67;;
21192;SDS011;10754;51.106;7.164;2022-09-29T05:31:48;3.40;;;3.10;;
21192;SDS011;10754;51.106;7.164;2022-09-29T05:34:14;3.97;;;3.20;;
21192;SDS011;10754;51.106;7.164;2022-09-29T05:36:41;3.73;;;2.90;;
21192;SDS011;10754;51.106;7.164;2022-09-29T05:39:06;3.33;;;2.77;;
21192;SDS011;10754;51.106;7.164;2022-09-29T05:41:32;3.50;;;2.87;;
21192;SDS011;10754;51.106;7.164;2022-09-29T05:43:58;3.63;;;3.23;;
21192;SDS011;10754;51.106;7.164;2022-09-29T05:46:25;4.20;;;3.03;;
21192;SDS011;10754;51.106;7.164;2022-09-29T05:48:51;3.90;;;3.47;;
21192;SDS011;10754;51.106;7.164;2022-09-29T05:51:17;4.03;;;3.20;;
21192;SDS011;10754;51.106;7.164;2022-09-29T05:53:44;4.07;;;3.77;;
21192;SDS011;10754;51.106;7.164;2022-09-29T05:56:15;4.10;;;3.43;;
21192;SDS011;10754;51.106;7.164;2022-09-29T05:58:43;4.33;;;3.60;;
21192;SDS011;10754;51.106;7.164;2022-09-29T06:01:19;4.07;;;3.33;;
21192;SDS011;10754;51.106;7.164;2022-09-29T06:03:46;3.70;;;3.40;;
21192;SDS011;10754;51.106;7.164;2022-09-29T06:06:16;4.40;;;3.63;;
21192;SDS011;10754;51.106;7.164;2022-09-29T06:08:44;3.83;;;3.53;;
21192;SDS011;10754;51.106;7.164;2022-09-29T06:11:15;4.17;;;3.43;;
21192;SDS011;10754;51.106;7.164;2022-09-29T06:13:43;4.60;;;3.60;;
21192;SDS011;10754;51.106;7.164;2022-09-29T06:16:10;3.70;;;3.40;;
21192;SDS011;10754;51.106;7.164;2022-09-29T06:18:36;4.10;;;3.43;;
21192;SDS011;10754;51.106;7.164;2022-09-29T06:21:03;5.13;;;3.20;;
21192;SDS011;10754;51.106;7.164;2022-09-29T06:23:30;3.40;;;3.10;;
21192;SDS011;10754;51.106;7.164;2022-09-29T06:25:56;3.73;;;3.33;;
21192;SDS011;10754;51.106;7.164;2022-09-29T06:28:22;3.50;;;3.20;;
21192;SDS011;10754;51.106;7.164;2022-09-29T06:30:48;4.83;;;3.77;;
21192;SDS011;10754;51.106;7.164;2022-09-29T06:33:14;5.13;;;3.20;;
21192;SDS011;10754;51.106;7.164;2022-09-29T06:35:44;3.90;;;3.60;;
21192;SDS011;10754;51.106;7.164;2022-09-29T06:38:44;5.67;;;3.90;;
21192;SDS011;10754;51.106;7.164;2022-09-29T06:41:11;4.30;;;3.63;;
21192;SDS011;10754;51.106;7.164;2022-09-29T06:43:36;4.17;;;3.23;;
21192;SDS011;10754;51.106;7.164;2022-09-29T06:46:02;3.70;;;3.07;;
21192;SDS011;10754;51.106;7.164;2022-09-29T06:48:28;4.10;;;3.70;;
21192;SDS011;10754;51.106;7.164;2022-09-29T06:50:54;3.40;;;3.10;;
21192;SDS011;10754;51.106;7.164;2022-09-29T06:53:20;4.63;;;3.63;;
21192;SDS011;10754;51.106;7.164;2022-09-29T06:55:52;3.63;;;3.33;;
21192;SDS011;10754;51.106;7.164;2022-09-29T06:58:20;3.50;;;3.20;;
21192;SDS011;10754;51.106;7.164;2022-09-29T07:00:46;3.77;;;3.07;;
21192;SDS011;10754;51.106;7.164;2022-09-29T07:03:12;3.30;;;3.00;;
21192;SDS011;10754;51.106;7.164;2022-09-29T07:05:37;3.87;;;3.50;;
21192;SDS011;10754;51.106;7.164;2022-09-29T07:08:03;3.50;;;3.30;;
21192;SDS011;10754;51.106;7.164;2022-09-29T07:10:28;4.67;;;3.33;;
21192;SDS011;10754;51.106;7.164;2022-09-29T07:12:54;5.00;;;3.53;;
21192;SDS011;10754;51.106;7.164;2022-09-29T07:15:20;3.50;;;3.20;;
21192;SDS011;10754;51.106;7.164;2022-09-29T07:17:45;4.13;;;3.83;;
21192;SDS011;10754;51.106;7.164;2022-09-29T07:20:15;3.77;;;3.47;;
21192;SDS011;10754;51.106;7.164;2022-09-29T07:22:40;4.73;;;3.40;;
21192;SDS011;10754;51.106;7.164;2022-09-29T07:25:06;3.37;;;3.10;;
21192;SDS011;10754;51.106;7.164;2022-09-29T07:27:32;4.27;;;3.27;;
21192;SDS011;10754;51.106;7.164;2022-09-29T07:29:59;4.43;;;3.77;;
21192;SDS011;10754;51.106;7.164;2022-09-29T07:32:24;4.33;;;3.93;;
21192;SDS011;10754;51.106;7.164;2022-09-29T07:34:50;3.87;;;3.57;;
21192;SDS011;10754;51.106;7.164;2022-09-29T07:37:16;3.77;;;3.50;;
21192;SDS011;10754;51.106;7.164;2022-09-29T07:39:41;3.70;;;3.40;;
21192;SDS011;10754;51.106;7.164;2022-09-29T07:42:07;3.43;;;3.13;;
21192;SDS011;10754;51.106;7.164;2022-09-29T07:44:33;3.53;;;3.00;;
21192;SDS011;10754;51.106;7.164;2022-09-29T07:46:58;3.40;;;3.00;;
21192;SDS011;10754;51.106;7.164;2022-09-29T07:49:24;3.73;;;3.33;;
21192;SDS011;10754;51.106;7.164;2022-09-29T07:51:49;3.30;;;3.00;;
21192;SDS011;10754;51.106;7.164;2022-09-29T07:54:16;4.40;;;3.10;;
21192;SDS011;10754;51.106;7.164;2022-09-29T07:56:41;3.13;;;2.83;;
21192;SDS011;10754;51.106;7.164;2022-09-29T07:59:08;3.10;;;2.60;;
21192;SDS011;10754;51.106;7.164;2022-09-29T08:01:35;3.50;;;2.50;;
21192;SDS011;10754;51.106;7.164;2022-09-29T08:04:00;3.03;;;2.83;;
21192;SDS011;10754;51.106;7.164;2022-09-29T08:06:26;3.23;;;2.93;;
21192;SDS011;10754;51.106;7.164;2022-09-29T08:08:52;3.70;;;3.00;;
21192;SDS011;10754;51.106;7.164;2022-09-29T08:11:18;4.43;;;3.10;;
21192;SDS011;10754;51.106;7.164;2022-09-29T08:13:49;4.15;;;2.88;;
21192;SDS011;10754;51.106;7.164;2022-09-29T08:16:17;3.10;;;2.80;;
21192;SDS011;10754;51.106;7.164;2022-09-29T08:18:42;4.93;;;2.97;;
21192;SDS011;10754;51.106;7.164;2022-09-29T08:21:09;3.00;;;2.67;;
21192;SDS011;10754;51.106;7.164;2022-09-29T08:23:36;3.40;;;3.10;;
21192;SDS011;10754;51.106;7.164;2022-09-29T08:26:04;4.22;;;3.10;;
21192;SDS011;10754;51.106;7.164;2022-09-29T08:28:34;4.27;;;3.27;;
21192;SDS011;10754;51.106;7.164;2022-09-29T08:31:02;3.95;;;2.75;;
21192;SDS011;10754;51.106;7.164;2022-09-29T08:33:28;5.43;;;3.00;;
21192;SDS011;10754;51.106;7.164;2022-09-29T08:35:55;3.70;;;3.40;;
21192;SDS011;10754;51.106;7.164;2022-09-29T08:38:22;3.22;;;3.03;;
21192;SDS011;10754;51.106;7.164;2022-09-29T08:40:48;3.58;;;3.25;;
21192;SDS011;10754;51.106;7.164;2022-09-29T08:43:14;3.20;;;3.00;;
21192;SDS011;10754;51.106;7.164;2022-09-29T08:45:49;3.70;;;3.30;;
21192;SDS011;10754;51.106;7.164;2022-09-29T08:48:22;3.40;;;3.10;;
21192;SDS011;10754;51.106;7.164;2022-09-29T08:50:57;3.72;;;3.42;;
21192;SDS011;10754;51.106;7.164;2022-09-29T08:53:27;3.22;;;2.92;;
21192;SDS011;10754;51.106;7.164;2022-09-29T08:56:03;3.38;;;3.10;;
21192;SDS011;10754;51.106;7.164;2022-09-29T08:58:33;3.53;;;3.20;;
21192;SDS011;10754;51.106;7.164;2022-09-29T09:01:16;3.85;;;3.53;;
21192;SDS011;10754;51.106;7.164;2022-09-29T09:18:09;4.15;;;3.47;;
21192;SDS011;10754;51.106;7.164;2022-09-29T09:20:48;4.32;;;3.92;;
21192;SDS011;10754;51.106;7.164;2022-09-29T09:23:24;3.40;;;3.10;;
21192;SDS011;10754;51.106;7.164;2022-09-29T09:26:03;4.10;;;3.30;;
21192;SDS011;10754;51.106;7.164;2022-09-29T09:28:32;3.50;;;3.20;;
21192;SDS011;10754;51.106;7.164;2022-09-29T09:31:12;3.65;;;3.33;;
21192;SDS011;10754;51.106;7.164;2022-09-29T09:33:56;5.60;;;3.50;;
21192;SDS011;10754;51.106;7.164;2022-09-29T09:36:27;4.97;;;3.75;;
21192;SDS011;10754;51.106;7.164;2022-09-29T09:38:58;3.70;;;3.40;;
21192;SDS011;10754;51.106;7.164;2022-09-29T09:41:30;3.97;;;3.67;;
21192;SDS011;10754;51.106;7.164;2022-09-29T09:44:00;3.60;;;3.30;;
21192;SDS011;10754;51.106;7.164;2022-09-29T09:46:40;3.83;;;3.33;;
21192;SDS011;10754;51.106;7.164;2022-09-29T09:52:03;4.65;;;4.25;;
21192;SDS011;10754;51.106;7.164;2022-09-29T09:54:52;4.15;;;3.72;;
21192;SDS011;10754;51.106;7.164;2022-09-29T09:57:34;5.35;;;3.60;;
21192;SDS011;10754;51.106;7.164;2022-09-29T10:00:22;7.72;;;4.10;;
21192;SDS011;10754;51.106;7.164;2022-09-29T10:02:53;3.80;;;3.50;;
21192;SDS011;10754;51.106;7.164;2022-09-29T10:08:11;5.78;;;4.13;;
21192;SDS011;10754;51.106;7.164;2022-09-29T10:10:43;5.45;;;4.78;;
21192;SDS011;10754;51.106;7.164;2022-09-29T10:13:09;4.90;;;4.50;;
21192;SDS011;10754;51.106;7.164;2022-09-29T10:18:15;4.30;;;3.90;;
21192;SDS011;10754;51.106;7.164;2022-09-29T10:20:44;4.93;;;4.13;;
21192;SDS011;10754;51.106;7.164;2022-09-29T10:25:51;4.15;;;3.75;;
21192;SDS011;10754;51.106;7.164;2022-09-29T10:28:20;4.90;;;4.20;;
21192;SDS011;10754;51.106;7.164;2022-09-29T10:30:47;4.57;;;3.40;;
21192;SDS011;10754;51.106;7.164;2022-09-29T10:33:17;4.18;;;3.67;;
21192;SDS011;10754;51.106;7.164;2022-09-29T10:35:46;5.28;;;4.38;;
21192;SDS011;10754;51.106;7.164;2022-09-29T10:38:17;3.95;;;3.55;;
21192;SDS011;10754;51.106;7.164;2022-09-29T10:43:26;4.45;;;3.80;;
21192;SDS011;10754;51.106;7.164;2022-09-29T10:45:58;5.13;;;3.22;;
21192;SDS011;10754;51.106;7.164;2022-09-29T10:48:24;3.90;;;3.42;;
21192;SDS011;10754;51.106;7.164;2022-09-29T10:50:55;5.53;;;3.15;;
21192;SDS011;10754;51.106;7.164;2022-09-29T10:56:17;7.68;;;3.47;;
21192;SDS011;10754;51.106;7.164;2022-09-29T10:58:57;3.10;;;2.80;;
21192;SDS011;10754;51.106;7.164;2022-09-29T11:01:23;3.53;;;2.50;;
21192;SDS011;10754;51.106;7.164;2022-09-29T11:03:52;3.53;;;2.67;;
21192;SDS011;10754;51.106;7.164;2022-09-29T11:06:28;2.80;;;2.10;;
21192;SDS011;10754;51.106;7.164;2022-09-29T11:09:03;3.53;;;2.70;;
21192;SDS011;10754;51.106;7.164;2022-09-29T11:11:51;3.35;;;2.40;;
21192;SDS011;10754;51.106;7.164;2022-09-29T11:19:49;2.65;;;1.50;;
21192;SDS011;10754;51.106;7.164;2022-09-29T11:35:17;1.80;;;1.42;;
21192;SDS011;10754;51.106;7.164;2022-09-29T11:41:04;2.88;;;1.20;;
21192;SDS011;10754;51.106;7.164;2022-09-29T11:43:54;2.10;;;1.23;;
21192;SDS011;10754;51.106;7.164;2022-09-29T11:52:33;2.65;;;1.30;;
21192;SDS011;10754;51.106;7.164;2022-09-29T12:04:12;2.13;;;1.10;;
21192;SDS011;10754;51.106;7.164;2022-09-29T12:12:20;2.72;;;1.25;;
21192;SDS011;10754;51.106;7.164;2022-09-29T12:17:49;1.60;;;1.02;;
21192;SDS011;10754;51.106;7.164;2022-09-29T12:20:21;2.20;;;1.00;;
21192;SDS011;10754;51.106;7.164;2022-09-29T12:22:48;1.90;;;1.27;;
21192;SDS011;10754;51.106;7.164;2022-09-29T12:25:16;2.22;;;1.10;;
21192;SDS011;10754;51.106;7.164;2022-09-29T12:27:45;1.73;;;1.10;;
21192;SDS011;10754;51.106;7.164;2022-09-29T12:30:20;1.50;;;1.40;;
21192;SDS011;10754;51.106;7.164;2022-09-29T12:35:46;2.15;;;0.80;;
21192;SDS011;10754;51.106;7.164;2022-09-29T12:41:10;1.42;;;0.80;;
21192;SDS011;10754;51.106;7.164;2022-09-29T12:46:34;0.93;;;0.73;;
21192;SDS011;10754;51.106;7.164;2022-09-29T12:49:16;2.53;;;1.17;;
21192;SDS011;10754;51.106;7.164;2022-09-29T12:52:09;1.48;;;0.93;;
21192;SDS011;10754;51.106;7.164;2022-09-29T12:54:55;1.98;;;0.80;;
21192;SDS011;10754;51.106;7.164;2022-09-29T12:57:27;2.90;;;0.70;;
21192;SDS011;10754;51.106;7.164;2022-09-29T12:59:57;2.95;;;1.00;;
21192;SDS011;10754;51.106;7.164;2022-09-29T13:10:53;0.95;;;0.80;;
21192;SDS011;10754;51.106;7.164;2022-09-29T13:16:40;2.03;;;1.15;;
21192;SDS011;10754;51.106;7.164;2022-09-29T13:19:26;2.60;;;1.35;;
21192;SDS011;10754;51.106;7.164;2022-09-29T13:22:35;3.25;;;1.40;;
21192;SDS011;10754;51.106;7.164;2022-09-29T13:27:52;1.73;;;1.40;;
21192;SDS011;10754;51.106;7.164;2022-09-29T13:30:20;4.05;;;1.00;;
21192;SDS011;10754;51.106;7.164;2022-09-29T13:33:00;1.48;;;1.02;;
21192;SDS011;10754;51.106;7.164;2022-09-29T13:35:37;2.60;;;1.20;;
21192;SDS011;10754;51.106;7.164;2022-09-29T13:38:05;2.58;;;1.20;;
21192;SDS011;10754;51.106;7.164;2022-09-29T13:40:32;2.67;;;1.40;;
21192;SDS011;10754;51.106;7.164;2022-09-29T13:43:02;1.45;;;0.77;;
21192;SDS011;10754;51.106;7.164;2022-09-29T13:48:26;1.83;;;1.08;;
21192;SDS011;10754;51.106;7.164;2022-09-29T13:56:10;2.55;;;1.20;;
21192;SDS011;10754;51.106;7.164;2022-09-29T14:01:07;2.35;;;0.93;;
21192;SDS011;10754;51.106;7.164;2022-09-29T14:03:38;2.67;;;1.10;;
21192;SDS011;10754;51.106;7.164;2022-09-29T14:06:24;1.73;;;1.27;;
21192;SDS011;10754;51.106;7.164;2022-09-29T14:08:53;2.78;;;1.10;;
21192;SDS011;10754;51.106;7.164;2022-09-29T14:11:32;3.17;;;1.42;;
21192;SDS011;10754;51.106;7.164;2022-09-29T14:14:05;3.63;;;1.30;;
21192;SDS011;10754;51.106;7.164;2022-09-29T14:16:38;3.17;;;1.02;;
21192;SDS011;10754;51.106;7.164;2022-09-29T14:21:55;1.27;;;1.08;;
21192;SDS011;10754;51.106;7.164;2022-09-29T14:38:02;2.63;;;1.23;;
21192;SDS011;10754;51.106;7.164;2022-09-29T14:40:28;1.95;;;1.13;;
21192;SDS011;10754;51.106;7.164;2022-09-29T14:46:02;4.70;;;1.77;;
21192;SDS011;10754;51.106;7.164;2022-09-29T14:52:03;2.65;;;1.65;;
21192;SDS011;10754;51.106;7.164;2022-09-29T14:57:25;2.10;;;1.40;;
21192;SDS011;10754;51.106;7.164;2022-09-29T15:00:11;1.60;;;1.10;;
21192;SDS011;10754;51.106;7.164;2022-09-29T15:02:49;2.38;;;1.38;;
21192;SDS011;10754;51.106;7.164;2022-09-29T15:05:25;3.05;;;1.60;;
21192;SDS011;10754;51.106;7.164;2022-09-29T15:07:51;2.35;;;1.40;;
21192;SDS011;10754;51.106;7.164;2022-09-29T15:10:27;2.92;;;1.50;;
21192;SDS011;10754;51.106;7.164;2022-09-29T15:15:39;2.38;;;1.27;;
21192;SDS011;10754;51.106;7.164;2022-09-29T15:18:32;6.38;;;1.75;;
21192;SDS011;10754;51.106;7.164;2022-09-29T15:21:05;2.78;;;1.65;;
21192;SDS011;10754;51.106;7.164;2022-09-29T15:26:11;2.80;;;1.52;;
21192;SDS011;10754;51.106;7.164;2022-09-29T15:28:39;4.05;;;2.05;;
21192;SDS011;10754;51.106;7.164;2022-09-29T15:31:09;1.58;;;1.40;;
21192;SDS011;10754;51.106;7.164;2022-09-29T15:33:43;2.88;;;1.92;;
21192;SDS011;10754;51.106;7.164;2022-09-29T15:36:22;5.78;;;1.60;;
21192;SDS011;10754;51.106;7.164;2022-09-29T15:38:53;6.22;;;1.60;;
21192;SDS011;10754;51.106;7.164;2022-09-29T15:41:24;3.30;;;1.90;;
21192;SDS011;10754;51.106;7.164;2022-09-29T15:43:51;2.20;;;1.40;;
21192;SDS011;10754;51.106;7.164;2022-09-29T15:46:19;4.82;;;1.88;;
21192;SDS011;10754;51.106;7.164;2022-09-29T15:51:57;4.88;;;1.77;;
21192;SDS011;10754;51.106;7.164;2022-09-29T15:54:35;2.15;;;1.33;;
21192;SDS011;10754;51.106;7.164;2022-09-29T15:57:24;6.75;;;2.10;;
21192;SDS011;10754;51.106;7.164;2022-09-29T16:00:15;7.88;;;1.67;;
21192;SDS011;10754;51.106;7.164;2022-09-29T16:08:45;14.40;;;2.75;;
21192;SDS011;10754;51.106;7.164;2022-09-29T16:11:18;6.28;;;2.45;;
21192;SDS011;10754;51.106;7.164;2022-09-29T16:13:57;3.63;;;1.75;;
21192;SDS011;10754;51.106;7.164;2022-09-29T16:16:35;6.22;;;1.38;;
21192;SDS011;10754;51.106;7.164;2022-09-29T16:19:08;3.20;;;1.50;;
21192;SDS011;10754;51.106;7.164;2022-09-29T16:21:39;3.60;;;1.40;;
21192;SDS011;10754;51.106;7.164;2022-09-29T16:26:45;2.35;;;1.23;;
21192;SDS011;10754;51.106;7.164;2022-09-29T16:31:47;5.03;;;1.63;;
21192;SDS011;10754;51.106;7.164;2022-09-29T16:39:44;5.25;;;1.40;;
21192;SDS011;10754;51.106;7.164;2022-09-29T16:42:18;2.38;;;1.00;;
21192;SDS011;10754;51.106;7.164;2022-09-29T16:44:48;1.83;;;1.25;;
21192;SDS011;10754;51.106;7.164;2022-09-29T16:47:15;2.75;;;1.80;;
21192;SDS011;10754;51.106;7.164;2022-09-29T16:49:51;3.17;;;1.70;;
21192;SDS011;10754;51.106;7.164;2022-09-29T16:52:22;3.80;;;1.83;;
21192;SDS011;10754;51.106;7.164;2022-09-29T16:54:50;3.97;;;1.77;;
21192;SDS011;10754;51.106;7.164;2022-09-29T16:57:20;2.15;;;1.20;;
21192;SDS011;10754;51.106;7.164;2022-09-29T16:59:50;3.03;;;1.85;;
21192;SDS011;10754;51.106;7.164;2022-09-29T17:02:18;3.58;;;1.95;;
21192;SDS011;10754;51.106;7.164;2022-09-29T17:04:44;4.18;;;2.40;;
21192;SDS011;10754;51.106;7.164;2022-09-29T17:07:13;3.80;;;2.80;;
21192;SDS011;10754;51.106;7.164;2022-09-29T17:09:42;4.60;;;2.97;;
21192;SDS011;10754;51.106;7.164;2022-09-29T17:12:11;4.47;;;2.50;;
21192;SDS011;10754;51.106;7.164;2022-09-29T17:14:38;5.15;;;2.40;;
21192;SDS011;10754;51.106;7.164;2022-09-29T17:17:03;4.90;;;2.42;;
21192;SDS011;10754;51.106;7.164;2022-09-29T17:19:29;3.85;;;2.17;;
21192;SDS011;10754;51.106;7.164;2022-09-29T17:21:54;2.20;;;1.77;;
21192;SDS011;10754;51.106;7.164;2022-09-29T17:24:21;2.75;;;2.10;;
21192;SDS011;10754;51.106;7.164;2022-09-29T17:26:47;3.05;;;2.70;;
21192;SDS011;10754;51.106;7.164;2022-09-29T17:29:31;5.72;;;2.60;;
21192;SDS011;10754;51.106;7.164;2022-09-29T17:31:57;6.47;;;3.38;;
21192;SDS011;10754;51.106;7.164;2022-09-29T17:34:26;3.50;;;3.20;;
21192;SDS011;10754;51.106;7.164;2022-09-29T17:36:57;3.97;;;3.67;;
21192;SDS011;10754;51.106;7.164;2022-09-29T17:39:25;6.13;;;5.53;;
21192;SDS011;10754;51.106;7.164;2022-09-29T17:41:51;13.30;;;7.05;;
21192;SDS011;10754;51.106;7.164;2022-09-29T17:44:17;7.57;;;6.97;;
21192;SDS011;10754;51.106;7.164;2022-09-29T17:46:43;9.00;;;8.10;;
21192;SDS011;10754;51.106;7.164;2022-09-29T17:49:10;10.00;;;9.00;;
21192;SDS011;10754;51.106;7.164;2022-09-29T17:51:37;8.38;;;7.68;;
21192;SDS011;10754;51.106;7.164;2022-09-29T17:54:03;10.50;;;6.07;;
21192;SDS011;10754;51.106;7.164;2022-09-29T17:56:29;4.50;;;3.60;;
21192;SDS011;10754;51.106;7.164;2022-09-29T17:59:01;3.97;;;3.30;;
21192;SDS011;10754;51.106;7.164;2022-09-29T18:01:29;4.00;;;2.95;;
21192;SDS011;10754;51.106;7.164;2022-09-29T18:03:58;3.83;;;2.67;;
21192;SDS011;10754;51.106;7.164;2022-09-29T18:06:24;6.15;;;2.55;;
21192;SDS011;10754;51.106;7.164;2022-09-29T18:08:54;2.97;;;2.20;;
21192;SDS011;10754;51.106;7.164;2022-09-29T18:11:21;4.53;;;1.60;;
21192;SDS011;10754;51.106;7.164;2022-09-29T18:13:48;1.95;;;1.35;;